sensor_id;sensor_type;location;lat;lon;timestamp;pressure;altitude;pressure_sealevel;temperature;humidity
42591;BME280;28218;53.342;-6.216;2023-05-10T00:00:25;100966.19;;;13.88;100.00
42591;BME280;28218;53.342;-6.216;2023-05-10T00:02:53;100970.81;;;13.86;100.00
42591;BME280;28218;53.342;-6.216;2023-05-10T00:05:22;100965.16;;;13.89;100.00
42591;BME280;28218;53.342;-6.216;2023-05-10T00:07:50;100974.94;;;13.89;100.00
42591;BME280;28218;53.342;-6.216;2023-05-10T00:10:18;100973.75;;;13.91;100.00
42591;BME280;28218;53.342;-6.216;2023-05-10T00:12:48;100975.38;;;13.92;100.00
42591;BME280;28218;53.342;-6.216;2023-05-10T00:15:16;100972.91;;;13.91;100.00
42591;BME280;28218;53.342;-6.216;2023-05-10T00:17:44;100972.56;;;13.94;100.00
42591;BME280;28218;53.342;-6.216;2023-05-10T00:20:12;100970.81;;;14.01;100.00
42591;BME280;28218;53.342;-6.216;2023-05-10T00:22:41;100965.91;;;13.98;100.00
42591;BME280;28218;53.342;-6.216;2023-05-10T00:25:10;100971.00;;;13.99;100.00
42591;BME280;28218;53.342;-6.216;2023-05-10T00:27:38;100965.16;;;14.04;100.00
42591;BME280;28218;53.342;-6.216;2023-05-10T00:30:09;100969.06;;;14.08;100.00
42591;BME280;28218;53.342;-6.216;2023-05-10T00:32:37;100966.97;;;14.03;100.00
42591;BME280;28218;53.342;-6.216;2023-05-10T00:35:06;100974.72;;;14.05;100.00
42591;BME280;28218;53.342;-6.216;2023-05-10T00:37:35;100966.41;;;14.08;100.00
42591;BME280;28218;53.342;-6.216;2023-05-10T00:40:04;100972.91;;;14.05;100.00
42591;BME280;28218;53.342;-6.216;2023-05-10T00:42:33;100966.59;;;14.06;100.00
42591;BME280;28218;53.342;-6.216;2023-05-10T00:45:01;100971.63;;;14.01;100.00
42591;BME280;28218;53.342;-6.216;2023-05-10T00:47:31;100968.63;;;14.04;100.00
42591;BME280;28218;53.342;-6.216;2023-05-10T00:49:59;100964.94;;;14.05;100.00
42591;BME280;28218;53.342;-6.216;2023-05-10T00:52:28;100969.06;;;14.08;100.00
42591;BME280;28218;53.342;-6.216;2023-05-10T00:54:57;100970.91;;;14.07;100.00
42591;BME280;28218;53.342;-6.216;2023-05-10T00:57:26;100971.16;;;14.13;100.00
42591;BME280;28218;53.342;-6.216;2023-05-10T00:59:54;100969.97;;;14.15;100.00
42591;BME280;28218;53.342;-6.216;2023-05-10T01:02:23;100964.78;;;14.07;100.00
42591;BME280;28218;53.342;-6.216;2023-05-10T01:04:54;100964.13;;;14.05;100.00
42591;BME280;28218;53.342;-6.216;2023-05-10T01:07:22;100963.94;;;14.06;100.00
42591;BME280;28218;53.342;-6.216;2023-05-10T01:09:51;100958.84;;;14.05;100.00
42591;BME280;28218;53.342;-6.216;2023-05-10T01:12:19;100964.94;;;14.05;100.00
42591;BME280;28218;53.342;-6.216;2023-05-10T01:14:48;100958.22;;;14.03;100.00
42591;BME280;28218;53.342;-6.216;2023-05-10T01:17:16;100962.69;;;14.02;100.00
42591;BME280;28218;53.342;-6.216;2023-05-10T01:19:45;100962.97;;;14.07;100.00
42591;BME280;28218;53.342;-6.216;2023-05-10T01:22:30;100960.66;;;14.04;100.00
42591;BME280;28218;53.342;-6.216;2023-05-10T01:25:40;100960.41;;;13.99;100.00
42591;BME280;28218;53.342;-6.216;2023-05-10T01:28:29;100959.94;;;13.96;100.00
42591;BME280;28218;53.342;-6.216;2023-05-10T01:31:08;100950.16;;;13.96;100.00
42591;BME280;28218;53.342;-6.216;2023-05-10T01:33:47;100950.16;;;13.96;100.00
42591;BME280;28218;53.342;-6.216;2023-05-10T01:36:21;100953.63;;;13.97;100.00
42591;BME280;28218;53.342;-6.216;2023-05-10T01:38:57;100953.75;;;13.89;100.00
42591;BME280;28218;53.342;-6.216;2023-05-10T01:41:32;100954.09;;;13.86;100.00
42591;BME280;28218;53.342;-6.216;2023-05-10T01:44:11;100958.59;;;13.85;100.00
42591;BME280;28218;53.342;-6.216;2023-05-10T01:46:43;100954.94;;;13.86;100.00
42591;BME280;28218;53.342;-6.216;2023-05-10T01:49:22;100940.66;;;13.87;100.00
42591;BME280;28218;53.342;-6.216;2023-05-10T01:51:53;100951.66;;;13.84;100.00
42591;BME280;28218;53.342;-6.216;2023-05-10T01:54:23;100956.28;;;13.82;100.00
42591;BME280;28218;53.342;-6.216;2023-05-10T01:56:58;100956.69;;;13.79;100.00
42591;BME280;28218;53.342;-6.216;2023-05-10T01:59:30;100957.03;;;13.76;100.00
42591;BME280;28218;53.342;-6.216;2023-05-10T02:01:59;100953.09;;;13.72;100.00
42591;BME280;28218;53.342;-6.216;2023-05-10T02:04:31;100953.56;;;13.75;100.00
42591;BME280;28218;53.342;-6.216;2023-05-10T02:07:00;100959.69;;;13.76;100.00
42591;BME280;28218;53.342;-6.216;2023-05-10T02:09:32;100944.97;;;13.73;100.00
42591;BME280;28218;53.342;-6.216;2023-05-10T02:12:01;100948.16;;;13.69;100.00
42591;BME280;28218;53.342;-6.216;2023-05-10T02:14:32;100952.28;;;13.71;100.00
42591;BME280;28218;53.342;-6.216;2023-05-10T02:17:04;100949.44;;;13.73;100.00
42591;BME280;28218;53.342;-6.216;2023-05-10T02:19:36;100948.81;;;13.71;100.00
42591;BME280;28218;53.342;-6.216;2023-05-10T02:22:06;100958.88;;;13.75;100.00
42591;BME280;28218;53.342;-6.216;2023-05-10T02:24:36;100951.28;;;13.72;100.00
42591;BME280;28218;53.342;-6.216;2023-05-10T02:27:05;100953.56;;;13.75;100.00
42591;BME280;28218;53.342;-6.216;2023-05-10T02:29:34;100951.28;;;13.72;100.00
42591;BME280;28218;53.342;-6.216;2023-05-10T02:32:03;100948.47;;;13.74;100.00
42591;BME280;28218;53.342;-6.216;2023-05-10T02:34:34;100945.63;;;13.75;100.00
42591;BME280;28218;53.342;-6.216;2023-05-10T02:37:03;100948.81;;;13.71;100.00
42591;BME280;28218;53.342;-6.216;2023-05-10T02:39:33;100941.88;;;13.70;100.00
42591;BME280;28218;53.342;-6.216;2023-05-10T02:42:02;100942.44;;;13.65;100.00
42591;BME280;28218;53.342;-6.216;2023-05-10T02:44:31;100948.91;;;13.63;100.00
42591;BME280;28218;53.342;-6.216;2023-05-10T02:47:01;100943.13;;;13.59;100.00
42591;BME280;28218;53.342;-6.216;2023-05-10T02:49:30;100951.09;;;13.59;100.00
42591;BME280;28218;53.342;-6.216;2023-05-10T02:52:01;100946.44;;;13.61;100.00
42591;BME280;28218;53.342;-6.216;2023-05-10T02:54:33;100943.59;;;13.63;100.00
42591;BME280;28218;53.342;-6.216;2023-05-10T02:57:04;100953.72;;;13.59;100.00
42591;BME280;28218;53.342;-6.216;2023-05-10T02:59:33;100953.72;;;13.59;100.00
42591;BME280;28218;53.342;-6.216;2023-05-10T03:02:02;100948.81;;;13.56;100.00
42591;BME280;28218;53.342;-6.216;2023-05-10T03:04:30;100949.63;;;13.57;100.00
42591;BME280;28218;53.342;-6.216;2023-05-10T03:07:01;100951.19;;;13.51;100.00
42591;BME280;28218;53.342;-6.216;2023-05-10T03:09:30;100942.06;;;13.53;100.00
42591;BME280;28218;53.342;-6.216;2023-05-10T03:12:04;100940.75;;;13.49;100.00
42591;BME280;28218;53.342;-6.216;2023-05-10T03:14:45;100947.41;;;13.45;100.00
42591;BME280;28218;53.342;-6.216;2023-05-10T03:17:22;100945.44;;;13.47;100.00
42591;BME280;28218;53.342;-6.216;2023-05-10T03:19:54;100947.06;;;13.48;100.00
42591;BME280;28218;53.342;-6.216;2023-05-10T03:22:27;100954.72;;;13.43;100.00
42591;BME280;28218;53.342;-6.216;2023-05-10T03:25:00;100950.91;;;13.46;100.00
42591;BME280;28218;53.342;-6.216;2023-05-10T03:27:32;100944.78;;;13.45;100.00
42591;BME280;28218;53.342;-6.216;2023-05-10T03:30:02;100943.78;;;13.46;100.00
42591;BME280;28218;53.342;-6.216;2023-05-10T03:32:30;100941.16;;;13.46;100.00
42591;BME280;28218;53.342;-6.216;2023-05-10T03:35:01;100933.84;;;13.48;100.00
42591;BME280;28218;53.342;-6.216;2023-05-10T03:37:30;100942.13;;;13.45;100.00
42591;BME280;28218;53.342;-6.216;2023-05-10T03:39:59;100941.97;;;13.47;100.00
42591;BME280;28218;53.342;-6.216;2023-05-10T03:42:27;100945.09;;;13.50;100.00
42591;BME280;28218;53.342;-6.216;2023-05-10T03:44:55;100937.13;;;13.50;100.00
42591;BME280;28218;53.342;-6.216;2023-05-10T03:47:23;100938.50;;;13.46;100.00
42591;BME280;28218;53.342;-6.216;2023-05-10T03:49:52;100938.13;;;13.49;100.00
42591;BME280;28218;53.342;-6.216;2023-05-10T03:52:20;100932.19;;;13.47;100.00
42591;BME280;28218;53.342;-6.216;2023-05-10T03:54:50;100941.69;;;13.42;100.00
42591;BME280;28218;53.342;-6.216;2023-05-10T03:57:18;100943.34;;;13.43;100.00
42591;BME280;28218;53.342;-6.216;2023-05-10T03:59:46;100939.59;;;13.37;100.00
42591;BME280;28218;53.342;-6.216;2023-05-10T04:02:14;100940.59;;;13.36;100.00
42591;BME280;28218;53.342;-6.216;2023-05-10T04:04:42;100940.41;;;13.38;100.00
42591;BME280;28218;53.342;-6.216;2023-05-10T04:07:10;100943.06;;;13.38;100.00
42591;BME280;28218;53.342;-6.216;2023-05-10T04:09:39;100946.88;;;13.35;100.00
42591;BME280;28218;53.342;-6.216;2023-05-10T04:12:08;100940.13;;;13.33;100.00
42591;BME280;28218;53.342;-6.216;2023-05-10T04:14:37;100934.09;;;13.39;100.00
42591;BME280;28218;53.342;-6.216;2023-05-10T04:17:05;100944.88;;;13.37;100.00
42591;BME280;28218;53.342;-6.216;2023-05-10T04:19:34;100943.53;;;13.41;100.00
42591;BME280;28218;53.342;-6.216;2023-05-10T04:22:03;100941.22;;;13.38;100.00
42591;BME280;28218;53.342;-6.216;2023-05-10T04:24:31;100944.69;;;13.39;100.00
42591;BME280;28218;53.342;-6.216;2023-05-10T04:27:00;100938.78;;;13.37;100.00
42591;BME280;28218;53.342;-6.216;2023-05-10T04:29:29;100944.88;;;13.37;100.00
42591;BME280;28218;53.342;-6.216;2023-05-10T04:31:58;100938.09;;;13.35;100.00
42591;BME280;28218;53.342;-6.216;2023-05-10T04:34:26;100944.31;;;13.27;100.00
42591;BME280;28218;53.342;-6.216;2023-05-10T04:36:54;100938.38;;;13.25;100.00
42591;BME280;28218;53.342;-6.216;2023-05-10T04:39:22;100941.03;;;13.25;100.00
42591;BME280;28218;53.342;-6.216;2023-05-10T04:41:51;100947.63;;;13.21;100.00
42591;BME280;28218;53.342;-6.216;2023-05-10T04:44:19;100948.31;;;13.23;100.00
42591;BME280;28218;53.342;-6.216;2023-05-10T04:46:49;100947.63;;;13.21;100.00
42591;BME280;28218;53.342;-6.216;2023-05-10T04:49:17;100938.88;;;13.20;100.00
42591;BME280;28218;53.342;-6.216;2023-05-10T04:51:45;100944.38;;;13.19;100.00
42591;BME280;28218;53.342;-6.216;2023-05-10T04:54:14;100942.22;;;13.22;100.00
42591;BME280;28218;53.342;-6.216;2023-05-10T04:56:42;100936.72;;;13.24;100.00
42591;BME280;28218;53.342;-6.216;2023-05-10T04:59:10;100936.94;;;13.22;100.00
42591;BME280;28218;53.342;-6.216;2023-05-10T05:01:39;100939.69;;;13.21;100.00
42591;BME280;28218;53.342;-6.216;2023-05-10T05:04:09;100939.88;;;13.19;100.00
42591;BME280;28218;53.342;-6.216;2023-05-10T05:06:37;100936.06;;;13.22;100.00
42591;BME280;28218;53.342;-6.216;2023-05-10T05:09:05;100933.44;;;13.22;100.00
42591;BME280;28218;53.342;-6.216;2023-05-10T05:11:33;100933.78;;;13.19;100.00
42591;BME280;28218;53.342;-6.216;2023-05-10T05:14:01;100942.22;;;13.22;100.00
42591;BME280;28218;53.342;-6.216;2023-05-10T05:16:30;100947.94;;;13.26;100.00
42591;BME280;28218;53.342;-6.216;2023-05-10T05:18:59;100946.78;;;13.28;100.00
42591;BME280;28218;53.342;-6.216;2023-05-10T05:21:29;100934.03;;;13.32;100.00
42591;BME280;28218;53.342;-6.216;2023-05-10T05:23:58;100942.22;;;13.37;100.00
42591;BME280;28218;53.342;-6.216;2023-05-10T05:26:27;100939.22;;;13.40;100.00
42591;BME280;28218;53.342;-6.216;2023-05-10T05:28:55;100943.34;;;13.43;100.00
42591;BME280;28218;53.342;-6.216;2023-05-10T05:31:23;100944.78;;;13.45;100.00
42591;BME280;28218;53.342;-6.216;2023-05-10T05:33:52;100938.50;;;13.46;100.00
42591;BME280;28218;53.342;-6.216;2023-05-10T05:36:20;100942.13;;;13.45;100.00
42591;BME280;28218;53.342;-6.216;2023-05-10T05:38:50;100941.22;;;13.38;100.00
42591;BME280;28218;53.342;-6.216;2023-05-10T05:41:18;100950.44;;;13.42;100.00
42591;BME280;28218;53.342;-6.216;2023-05-10T05:43:46;100944.78;;;13.45;100.00
42591;BME280;28218;53.342;-6.216;2023-05-10T05:46:14;100937.31;;;13.49;100.00
42591;BME280;28218;53.342;-6.216;2023-05-10T05:48:43;100940.75;;;13.49;100.00
42591;BME280;28218;53.342;-6.216;2023-05-10T05:51:11;100943.88;;;13.38;100.00
42591;BME280;28218;53.342;-6.216;2023-05-10T05:53:39;100945.69;;;13.38;100.00
42591;BME280;28218;53.342;-6.216;2023-05-10T05:56:09;100948.53;;;13.36;100.00
42591;BME280;28218;53.342;-6.216;2023-05-10T05:58:37;100944.34;;;13.42;100.00
42591;BME280;28218;53.342;-6.216;2023-05-10T06:01:06;100951.28;;;13.43;100.00
42591;BME280;28218;53.342;-6.216;2023-05-10T06:03:34;100954.00;;;13.49;100.00
42591;BME280;28218;53.342;-6.216;2023-05-10T06:06:03;100953.19;;;13.49;100.00
42591;BME280;28218;53.342;-6.216;2023-05-10T06:08:31;100956.56;;;13.58;100.00
42591;BME280;28218;53.342;-6.216;2023-05-10T06:11:00;100953.56;;;13.75;100.00
42591;BME280;28218;53.342;-6.216;2023-05-10T06:13:32;100947.34;;;13.83;100.00
42591;BME280;28218;53.342;-6.216;2023-05-10T06:16:02;100954.09;;;13.86;100.00
42591;BME280;28218;53.342;-6.216;2023-05-10T06:18:30;100956.41;;;13.89;100.00
42591;BME280;28218;53.342;-6.216;2023-05-10T06:20:58;100945.88;;;13.95;100.00
42591;BME280;28218;53.342;-6.216;2023-05-10T06:23:27;100952.81;;;13.96;100.00
42591;BME280;28218;53.342;-6.216;2023-05-10T06:25:55;100954.09;;;14.00;100.00
42591;BME280;28218;53.342;-6.216;2023-05-10T06:28:23;100958.38;;;14.01;100.00
42591;BME280;28218;53.342;-6.216;2023-05-10T06:30:53;100955.38;;;14.04;100.00
42591;BME280;28218;53.342;-6.216;2023-05-10T06:33:21;100955.72;;;14.01;100.00
42591;BME280;28218;53.342;-6.216;2023-05-10T06:35:49;100962.50;;;14.04;100.00
42591;BME280;28218;53.342;-6.216;2023-05-10T06:38:17;100964.94;;;14.05;100.00
42591;BME280;28218;53.342;-6.216;2023-05-10T06:40:45;100965.16;;;14.04;100.00
42591;BME280;28218;53.342;-6.216;2023-05-10T06:43:14;100974.28;;;14.01;100.00
42591;BME280;28218;53.342;-6.216;2023-05-10T06:45:42;100971.53;;;14.10;100.00
42591;BME280;28218;53.342;-6.216;2023-05-10T06:48:12;100975.38;;;14.07;100.00
42591;BME280;28218;53.342;-6.216;2023-05-10T06:50:40;100972.81;;;14.14;100.00
42591;BME280;28218;53.342;-6.216;2023-05-10T06:53:08;100979.84;;;14.21;100.00
42591;BME280;28218;53.342;-6.216;2023-05-10T06:55:36;100978.63;;;14.24;100.00
42591;BME280;28218;53.342;-6.216;2023-05-10T06:58:04;100982.75;;;14.26;100.00
42591;BME280;28218;53.342;-6.216;2023-05-10T07:00:33;100983.13;;;14.23;100.00
42591;BME280;28218;53.342;-6.216;2023-05-10T07:03:01;100980.66;;;14.22;100.00
42591;BME280;28218;53.342;-6.216;2023-05-10T07:05:31;100986.78;;;14.22;100.00
42591;BME280;28218;53.342;-6.216;2023-05-10T07:07:59;100997.28;;;14.16;100.00
42591;BME280;28218;53.342;-6.216;2023-05-10T07:10:28;100983.41;;;14.14;100.00
42591;BME280;28218;53.342;-6.216;2023-05-10T07:12:57;100992.72;;;14.10;100.00
42591;BME280;28218;53.342;-6.216;2023-05-10T07:15:25;100986.41;;;14.11;100.00
42591;BME280;28218;53.342;-6.216;2023-05-10T07:17:53;100994.00;;;14.14;100.00
42591;BME280;28218;53.342;-6.216;2023-05-10T07:20:22;100994.81;;;14.14;100.00
42591;BME280;28218;53.342;-6.216;2023-05-10T07:22:51;100982.38;;;14.15;100.00
42591;BME280;28218;53.342;-6.216;2023-05-10T07:25:20;100986.03;;;14.28;100.00
42591;BME280;28218;53.342;-6.216;2023-05-10T07:27:48;100993.94;;;14.43;100.00
42591;BME280;28218;53.342;-6.216;2023-05-10T07:30:17;100984.19;;;14.59;100.00
42591;BME280;28218;53.342;-6.216;2023-05-10T07:32:46;100983.16;;;14.60;100.00
42591;BME280;28218;53.342;-6.216;2023-05-10T07:35:14;100991.28;;;14.58;100.00
42591;BME280;28218;53.342;-6.216;2023-05-10T07:37:43;100992.50;;;14.55;100.00
42591;BME280;28218;53.342;-6.216;2023-05-10T07:40:13;100984.91;;;14.52;100.00
42591;BME280;28218;53.342;-6.216;2023-05-10T07:42:41;100984.34;;;14.57;100.00
42591;BME280;28218;53.342;-6.216;2023-05-10T07:45:09;100984.94;;;14.74;100.00
42591;BME280;28218;53.342;-6.216;2023-05-10T07:47:38;100986.13;;;14.93;100.00
42591;BME280;28218;53.342;-6.216;2023-05-10T07:50:07;100991.84;;;15.18;100.00
42591;BME280;28218;53.342;-6.216;2023-05-10T07:52:35;100975.16;;;15.24;100.00
42591;BME280;28218;53.342;-6.216;2023-05-10T07:55:04;100988.06;;;15.27;100.00
42591;BME280;28218;53.342;-6.216;2023-05-10T07:57:35;100986.34;;;15.19;100.00
42591;BME280;28218;53.342;-6.216;2023-05-10T08:00:04;100984.53;;;15.20;100.00
42591;BME280;28218;53.342;-6.216;2023-05-10T08:02:34;100989.53;;;15.08;100.00
42591;BME280;28218;53.342;-6.216;2023-05-10T08:05:03;100987.25;;;15.05;100.00
42591;BME280;28218;53.342;-6.216;2023-05-10T08:07:32;100989.97;;;15.12;100.00
42591;BME280;28218;53.342;-6.216;2023-05-10T08:10:00;101001.16;;;15.07;100.00
42591;BME280;28218;53.342;-6.216;2023-05-10T08:12:28;100983.28;;;14.94;100.00
42591;BME280;28218;53.342;-6.216;2023-05-10T08:14:58;100992.63;;;14.90;100.00
42591;BME280;28218;53.342;-6.216;2023-05-10T08:17:26;100992.38;;;15.06;100.00
42591;BME280;28218;53.342;-6.216;2023-05-10T08:19:54;100995.53;;;15.17;100.00
42591;BME280;28218;53.342;-6.216;2023-05-10T08:22:23;100990.50;;;15.28;100.00
42591;BME280;28218;53.342;-6.216;2023-05-10T08:24:51;100993.03;;;15.37;100.00
42591;BME280;28218;53.342;-6.216;2023-05-10T08:27:19;100991.88;;;15.46;100.00
42591;BME280;28218;53.342;-6.216;2023-05-10T08:29:48;100995.78;;;15.50;100.00
42591;BME280;28218;53.342;-6.216;2023-05-10T08:32:17;100988.41;;;15.45;100.00
42591;BME280;28218;53.342;-6.216;2023-05-10T08:34:46;100998.53;;;15.35;100.00
42591;BME280;28218;53.342;-6.216;2023-05-10T08:37:14;100999.44;;;15.21;100.00
42591;BME280;28218;53.342;-6.216;2023-05-10T08:39:43;101001.22;;;15.14;100.00
42591;BME280;28218;53.342;-6.216;2023-05-10T08:42:14;101001.84;;;15.16;100.00
42591;BME280;28218;53.342;-6.216;2023-05-10T08:44:45;101007.41;;;15.21;100.00
42591;BME280;28218;53.342;-6.216;2023-05-10T08:47:18;101010.56;;;15.09;100.00
42591;BME280;28218;53.342;-6.216;2023-05-10T08:49:47;101013.03;;;15.11;100.00
42591;BME280;28218;53.342;-6.216;2023-05-10T08:52:18;101010.63;;;15.16;100.00
42591;BME280;28218;53.342;-6.216;2023-05-10T08:54:47;101015.53;;;15.19;100.00
42591;BME280;28218;53.342;-6.216;2023-05-10T08:57:16;101015.38;;;15.21;100.00
42591;BME280;28218;53.342;-6.216;2023-05-10T08:59:44;101015.63;;;15.04;100.00
42591;BME280;28218;53.342;-6.216;2023-05-10T09:02:13;101018.69;;;15.01;100.00
42591;BME280;28218;53.342;-6.216;2023-05-10T09:04:45;101021.75;;;14.83;100.00
42591;BME280;28218;53.342;-6.216;2023-05-10T09:07:16;101013.84;;;14.90;100.00
42591;BME280;28218;53.342;-6.216;2023-05-10T09:09:45;101020.13;;;15.04;100.00
42591;BME280;28218;53.342;-6.216;2023-05-10T09:12:14;101017.53;;;15.11;100.00
42591;BME280;28218;53.342;-6.216;2023-05-10T09:14:44;101018.97;;;15.13;100.00
42591;BME280;28218;53.342;-6.216;2023-05-10T09:17:13;101012.75;;;15.27;100.00
42591;BME280;28218;53.342;-6.216;2023-05-10T09:19:41;101019.22;;;15.40;100.00
42591;BME280;28218;53.342;-6.216;2023-05-10T09:22:11;101014.16;;;15.51;100.00
42591;BME280;28218;53.342;-6.216;2023-05-10T09:24:40;101016.06;;;15.57;100.00
42591;BME280;28218;53.342;-6.216;2023-05-10T09:27:12;101002.13;;;15.77;100.00
42591;BME280;28218;53.342;-6.216;2023-05-10T09:29:40;101017.00;;;16.06;100.00
42591;BME280;28218;53.342;-6.216;2023-05-10T09:32:09;101018.28;;;16.17;100.00
42591;BME280;28218;53.342;-6.216;2023-05-10T09:34:39;101018.28;;;16.17;100.00
42591;BME280;28218;53.342;-6.216;2023-05-10T09:37:08;101006.38;;;16.06;100.00
42591;BME280;28218;53.342;-6.216;2023-05-10T09:39:38;101018.19;;;15.97;100.00
42591;BME280;28218;53.342;-6.216;2023-05-10T09:42:09;101028.00;;;15.96;100.00
42591;BME280;28218;53.342;-6.216;2023-05-10T09:44:37;101034.06;;;15.90;100.00
42591;BME280;28218;53.342;-6.216;2023-05-10T09:47:07;101038.34;;;15.84;100.00
42591;BME280;28218;53.342;-6.216;2023-05-10T09:49:35;101036.91;;;15.82;100.00
42591;BME280;28218;53.342;-6.216;2023-05-10T09:52:05;101031.59;;;15.82;100.00
42591;BME280;28218;53.342;-6.216;2023-05-10T09:54:34;101038.91;;;15.80;100.00
42591;BME280;28218;53.342;-6.216;2023-05-10T09:57:04;101044.88;;;15.82;100.00
42591;BME280;28218;53.342;-6.216;2023-05-10T09:59:33;101036.09;;;15.81;100.00
42591;BME280;28218;53.342;-6.216;2023-05-10T10:02:02;101037.97;;;15.88;100.00
42591;BME280;28218;53.342;-6.216;2023-05-10T10:04:30;101035.75;;;15.91;100.00
42591;BME280;28218;53.342;-6.216;2023-05-10T10:07:00;101025.88;;;15.85;100.00
42591;BME280;28218;53.342;-6.216;2023-05-10T10:09:30;101035.06;;;15.82;100.00
42591;BME280;28218;53.342;-6.216;2023-05-10T10:11:58;101032.03;;;15.86;100.00
42591;BME280;28218;53.342;-6.216;2023-05-10T10:14:29;101022.69;;;15.96;100.00
42591;BME280;28218;53.342;-6.216;2023-05-10T10:16:57;101035.41;;;16.07;100.00
42591;BME280;28218;53.342;-6.216;2023-05-10T10:19:34;101032.59;;;16.16;100.00
42591;BME280;28218;53.342;-6.216;2023-05-10T10:22:04;101041.66;;;16.28;100.00
42591;BME280;28218;53.342;-6.216;2023-05-10T10:24:32;101032.88;;;16.34;100.00
42591;BME280;28218;53.342;-6.216;2023-05-10T10:27:09;101023.28;;;16.33;100.00
42591;BME280;28218;53.342;-6.216;2023-05-10T10:29:50;101029.41;;;16.33;100.00
42591;BME280;28218;53.342;-6.216;2023-05-10T10:32:25;101022.09;;;16.55;100.00
42591;BME280;28218;53.342;-6.216;2023-05-10T10:34:56;101028.34;;;16.82;100.00
42591;BME280;28218;53.342;-6.216;2023-05-10T10:37:41;101018.19;;;17.13;100.00
42591;BME280;28218;53.342;-6.216;2023-05-10T10:40:24;101021.44;;;17.34;100.00
42591;BME280;28218;53.342;-6.216;2023-05-10T10:42:53;101021.47;;;17.41;100.00
42591;BME280;28218;53.342;-6.216;2023-05-10T10:45:24;101018.19;;;17.46;100.00
42591;BME280;28218;53.342;-6.216;2023-05-10T10:48:21;101025.31;;;17.45;100.00
42591;BME280;28218;53.342;-6.216;2023-05-10T10:50:56;101032.50;;;17.38;100.00
42591;BME280;28218;53.342;-6.216;2023-05-10T10:53:26;101029.84;;;17.45;100.00
42591;BME280;28218;53.342;-6.216;2023-05-10T10:56:02;101036.81;;;17.52;100.00
42591;BME280;28218;53.342;-6.216;2023-05-10T10:58:33;101034.75;;;17.68;100.00
42591;BME280;28218;53.342;-6.216;2023-05-10T11:01:13;101045.00;;;17.57;100.00
42591;BME280;28218;53.342;-6.216;2023-05-10T11:04:17;101054.00;;;17.30;100.00
42591;BME280;28218;53.342;-6.216;2023-05-10T11:06:45;101042.75;;;17.28;100.00
42591;BME280;28218;53.342;-6.216;2023-05-10T11:09:13;101046.44;;;17.27;100.00
42591;BME280;28218;53.342;-6.216;2023-05-10T11:11:50;101045.63;;;17.20;100.00
42591;BME280;28218;53.342;-6.216;2023-05-10T11:14:21;101039.88;;;17.16;100.00
42591;BME280;28218;53.342;-6.216;2023-05-10T11:16:50;101047.66;;;17.11;100.00
42591;BME280;28218;53.342;-6.216;2023-05-10T11:19:19;101044.38;;;17.09;100.00
42591;BME280;28218;53.342;-6.216;2023-05-10T11:21:49;101049.69;;;17.16;100.00
42591;BME280;28218;53.342;-6.216;2023-05-10T11:24:19;101041.13;;;17.14;100.00
42591;BME280;28218;53.342;-6.216;2023-05-10T11:26:49;101042.75;;;17.08;100.00
42591;BME280;28218;53.342;-6.216;2023-05-10T11:29:18;101048.88;;;17.08;100.00
42591;BME280;28218;53.342;-6.216;2023-05-10T11:31:47;101039.25;;;17.07;100.00
42591;BME280;28218;53.342;-6.216;2023-05-10T11:34:27;101045.81;;;17.05;100.00
42591;BME280;28218;53.342;-6.216;2023-05-10T11:36:57;101045.78;;;16.98;100.00
42591;BME280;28218;53.342;-6.216;2023-05-10T11:39:26;101044.97;;;16.98;100.00
42591;BME280;28218;53.342;-6.216;2023-05-10T11:41:55;101045.56;;;16.93;100.00
42591;BME280;28218;53.342;-6.216;2023-05-10T11:44:29;101039.22;;;16.81;100.00
42591;BME280;28218;53.342;-6.216;2023-05-10T11:46:58;101035.94;;;16.85;100.00
42591;BME280;28218;53.342;-6.216;2023-05-10T11:49:29;101044.78;;;16.99;100.00
42591;BME280;28218;53.342;-6.216;2023-05-10T11:52:04;101043.13;;;17.11;100.00
42591;BME280;28218;53.342;-6.216;2023-05-10T11:54:33;101035.56;;;17.15;100.00
42591;BME280;28218;53.342;-6.216;2023-05-10T11:57:02;101043.97;;;17.19;100.00
42591;BME280;28218;53.342;-6.216;2023-05-10T11:59:30;101057.09;;;17.33;100.00
42591;BME280;28218;53.342;-6.216;2023-05-10T12:01:59;101054.00;;;17.30;100.00
42591;BME280;28218;53.342;-6.216;2023-05-10T12:04:29;101062.19;;;17.22;100.00
42591;BME280;28218;53.342;-6.216;2023-05-10T12:06:57;101060.97;;;17.11;100.00
42591;BME280;28218;53.342;-6.216;2023-05-10T12:09:25;101070.97;;;17.02;100.00
42591;BME280;28218;53.342;-6.216;2023-05-10T12:12:08;101058.44;;;16.83;100.00
42591;BME280;28218;53.342;-6.216;2023-05-10T12:14:36;101066.78;;;16.67;100.00
42591;BME280;28218;53.342;-6.216;2023-05-10T12:17:05;101067.53;;;16.60;100.00
42591;BME280;28218;53.342;-6.216;2023-05-10T12:19:41;101063.91;;;16.61;100.00
42591;BME280;28218;53.342;-6.216;2023-05-10T12:22:10;101055.78;;;16.76;100.00
42591;BME280;28218;53.342;-6.216;2023-05-10T12:24:38;101058.28;;;16.91;100.00
42591;BME280;28218;53.342;-6.216;2023-05-10T12:27:08;101043.13;;;17.11;100.00
42591;BME280;28218;53.342;-6.216;2023-05-10T12:29:54;101048.50;;;17.18;100.00
42591;BME280;28218;53.342;-6.216;2023-05-10T12:32:37;101054.22;;;17.08;100.00
42591;BME280;28218;53.342;-6.216;2023-05-10T12:35:07;101050.28;;;16.91;100.00
42591;BME280;28218;53.342;-6.216;2023-05-10T12:37:36;101053.34;;;16.88;100.00
42591;BME280;28218;53.342;-6.216;2023-05-10T12:40:06;101047.56;;;16.71;100.00
42591;BME280;28218;53.342;-6.216;2023-05-10T12:42:36;101049.63;;;16.76;100.00
42591;BME280;28218;53.342;-6.216;2023-05-10T12:45:05;101061.91;;;16.77;100.00